Map

Track Data

SID SEASON NUMBER BASIN SUBBASIN NAME ISO_TIME NATURE LAT LON WMO_WIND WMO_PRES WMO_AGENCY TRACK_TYPE DIST2LAND LANDFALL IFLAG USA_AGENCY USA_ATCF_ID USA_LAT USA_LON USA_RECORD USA_STATUS USA_WIND USA_PRES USA_SSHS USA_R34_NE USA_R34_SE USA_R34_SW USA_R34_NW USA_R50_NE USA_R50_SE USA_R50_SW USA_R50_NW USA_R64_NE USA_R64_SE USA_R64_SW USA_R64_NW USA_POCI USA_ROCI USA_RMW USA_EYE TOKYO_LAT TOKYO_LON TOKYO_GRADE TOKYO_WIND TOKYO_PRES TOKYO_R50_DIR TOKYO_R50_LONG TOKYO_R50_SHORT TOKYO_R30_DIR TOKYO_R30_LONG TOKYO_R30_SHORT TOKYO_LAND CMA_LAT CMA_LON CMA_CAT CMA_WIND CMA_PRES HKO_LAT HKO_LON HKO_CAT HKO_WIND HKO_PRES NEWDELHI_LAT NEWDELHI_LON NEWDELHI_GRADE NEWDELHI_WIND NEWDELHI_PRES NEWDELHI_CI NEWDELHI_DP NEWDELHI_POCI REUNION_LAT REUNION_LON REUNION_TYPE REUNION_WIND REUNION_PRES REUNION_TNUM REUNION_CI REUNION_RMW REUNION_R34_NE REUNION_R34_SE REUNION_R34_SW REUNION_R34_NW REUNION_R50_NE REUNION_R50_SE REUNION_R50_SW REUNION_R50_NW REUNION_R64_NE REUNION_R64_SE REUNION_R64_SW REUNION_R64_NW BOM_LAT BOM_LON BOM_TYPE BOM_WIND BOM_PRES BOM_TNUM BOM_CI BOM_RMW BOM_R34_NE BOM_R34_SE BOM_R34_SW BOM_R34_NW BOM_R50_NE BOM_R50_SE BOM_R50_SW BOM_R50_NW BOM_R64_NE BOM_R64_SE BOM_R64_SW BOM_R64_NW BOM_ROCI BOM_POCI BOM_EYE BOM_POS_METHOD BOM_PRES_METHOD NADI_LAT NADI_LON NADI_CAT NADI_WIND NADI_PRES WELLINGTON_LAT WELLINGTON_LON WELLINGTON_WIND WELLINGTON_PRES DS824_LAT DS824_LON DS824_STAGE DS824_WIND DS824_PRES TD9636_LAT TD9636_LON TD9636_STAGE TD9636_WIND TD9636_PRES TD9635_LAT TD9635_LON TD9635_WIND TD9635_PRES TD9635_ROCI NEUMANN_LAT NEUMANN_LON NEUMANN_CLASS NEUMANN_WIND NEUMANN_PRES MLC_LAT MLC_LON MLC_CLASS MLC_WIND MLC_PRES USA_GUST BOM_GUST BOM_GUST_PER REUNION_GUST REUNION_GUST_PER USA_SEAHGT USA_SEARAD_NE USA_SEARAD_SE USA_SEARAD_SW USA_SEARAD_NW STORM_SPEED STORM_DIR
1866101S07089 1866 8 SI MM NOT_NAMED 1866-04-11 00:00:00 NR -7.20000 88.6000 main 1297 1297 __________O___ -1 -7.20000 88.6000 7 6 224
1866101S07089 1866 8 SI MM NOT_NAMED 1866-04-11 03:00:00 NR -7.42042 88.3815 main 1327 1327 __________P___ -1 -7.42042 88.3815 7 4 222
1866101S07089 1866 8 SI MM NOT_NAMED 1866-04-11 06:00:00 NR -7.47447 88.3527 main 1333 1333 _____O____P___ -1 -7.00000 88.9000 99 9.90000 -7.63263 88.1702 7 2 220
1866101S07089 1866 8 SI MM NOT_NAMED 1866-04-11 09:00:00 NR -7.59958 88.2297 main 1358 1358 _____P____P___ -1 -7.14172 88.7412 99 -7.82851 87.9739 7 3 225
1866101S07089 1866 8 SI MM NOT_NAMED 1866-04-11 12:00:00 NR -7.69272 88.1356 main 1373 1373 _____P____O___ -1 -7.28301 88.5832 99 -8.00000 87.8000 7 3 226
1866101S07089 1866 8 SI MM NOT_NAMED 1866-04-11 15:00:00 NR -7.78296 88.0401 main 1388 1388 _____P____P___ -1 -7.42348 88.4268 99 -8.14244 87.6533 7 3 227
1866101S07089 1866 8 SI MM NOT_NAMED 1866-04-11 18:00:00 NR -7.91383 87.9001 main 1403 1403 _____P____P___ -1 -7.56273 88.2729 99 -8.26493 87.5274 7 4 226
1866101S07089 1866 8 SI MM NOT_NAMED 1866-04-11 21:00:00 NR -8.04017 87.7675 main 1418 1418 _____P____P___ -1 -7.70039 88.1224 99 -8.37995 87.4127 7 4 225
1866101S07089 1866 8 SI MM NOT_NAMED 1866-04-12 00:00:00 NR -8.16804 87.6381 main 1448 1448 _____P____O___ -1 -7.83608 87.9762 99 -8.50000 87.3000 7 4 224
1866101S07089 1866 8 SI MM NOT_NAMED 1866-04-12 03:00:00 NR -8.30814 87.5010 main 1463 1463 _____P____P___ -1 -7.96941 87.8351 99 -8.64688 87.1669 7 4 224
1866101S07089 1866 8 SI MM NOT_NAMED 1866-04-12 06:00:00 NR -8.45000 87.3675 main 1484 1484 _____O____P___ -1 -8.10000 87.7000 99 9.90000 -8.80001 87.0350 7 4 222
1866101S07089 1866 8 SI MM NOT_NAMED 1866-04-12 09:00:00 NR -8.59041 87.2411 main 1509 1509 _____P____P___ -1 -8.22768 87.5715 99 -8.95313 86.9106 7 4 221
1866101S07089 1866 8 SI MM NOT_NAMED 1866-04-12 12:00:00 NR -8.72651 87.1246 main 1524 1524 _____P____O___ -1 -8.35303 87.4492 99 -9.10000 86.8000 7 3 220
1866101S07089 1866 8 SI MM NOT_NAMED 1866-04-12 15:00:00 NR -8.85450 87.0234 main 1545 1545 _____P____P___ -1 -8.47684 87.3322 99 -9.23216 86.7146 7 3 217
1866101S07089 1866 8 SI MM NOT_NAMED 1866-04-12 18:00:00 NR -8.97867 86.9311 main 1560 1560 _____P____P___ -1 -8.59988 87.2198 99 -9.35746 86.6424 7 3 216
1866101S07089 1866 8 SI MM NOT_NAMED 1866-04-12 21:00:00 NR -9.10099 86.8426 main 1575 1575 _____P____P___ -1 -8.72294 87.1111 99 -9.47903 86.5740 7 3 216
1866101S07089 1866 8 SI MM NOT_NAMED 1866-04-13 00:00:00 NR -9.22340 86.7527 main 1581 1581 _____P____O___ -1 -8.84680 87.0055 99 -9.60000 86.5000 7 3 217
1866101S07089 1866 8 SI MM NOT_NAMED 1866-04-13 03:00:00 NR -9.34455 86.6566 main 1596 1596 _____P____P___ -1 -8.97223 86.9020 99 -9.71687 86.4112 7 3 218
1866101S07089 1866 8 SI MM NOT_NAMED 1866-04-13 06:00:00 NR -9.46749 86.5575 main 1617 1617 _____O____P___ -1 -9.10000 86.8000 99 9.90000 -9.83499 86.3149 7 3 219
1866101S07089 1866 8 SI MM NOT_NAMED 1866-04-13 09:00:00 NR -9.59576 86.4532 main 1633 1633 _____P____P___ -1 -9.23091 86.6953 99 -9.96061 86.2112 7 3 219
1866101S07089 1866 8 SI MM NOT_NAMED 1866-04-13 12:00:00 NR -9.73185 86.3463 main 1657 1657 _____P____O___ -1 -9.36370 86.5927 99 -10.1000 86.1000 7 4 217
1866101S07089 1866 8 SI MM NOT_NAMED 1866-04-13 15:00:00 NR -9.88154 86.2330 main 1678 1678 _____P____P___ -1 -9.49837 86.4918 99 -10.2647 85.9741 7 4 216
1866101S07089 1866 8 SI MM NOT_NAMED 1866-04-13 18:00:00 NR -10.0387 86.1174 main 1694 1694 _____P____P___ -1 -9.63493 86.3923 99 -10.4425 85.8426 7 4 215
1866101S07089 1866 8 SI MM NOT_NAMED 1866-04-13 21:00:00 NR -10.1987 86.0043 main 1715 1715 _____P____P___ -1 -9.77338 86.2938 99 -10.6241 85.7147 7 4 214
1866101S07089 1866 8 SI MM NOT_NAMED 1866-04-14 00:00:00 NR -10.3569 85.8979 main 1736 1736 _____P____O___ -1 -9.91370 86.1958 99 -10.8000 85.6000 7 4 213
1866101S07089 1866 8 SI MM NOT_NAMED 1866-04-14 03:00:00 NR -10.5095 85.8017 main 1752 1752 _____P____P___ -1 -10.0559 86.0980 99 -10.9631 85.5053 7 3 211
1866101S07089 1866 8 SI MM NOT_NAMED 1866-04-14 06:00:00 NR -10.5921 85.7546 main 1758 1758 _____O____P___ -1 -10.2000 86.0000 99 9.90000 -11.1150 85.4275 7 2 210
1866101S07089 1866 8 SI MM NOT_NAMED 1866-04-14 09:00:00 NR -10.6424 85.7215 main 1767 1767 _____P____P___ -1 -10.3338 85.9018 99 -11.2594 85.3609 7 1 225
1866101S07089 1866 8 SI MM NOT_NAMED 1866-04-14 12:00:00 NR -10.6547 85.7030 main 1773 1767 _____P____O___ -1 -10.4684 85.8038 99 -11.4000 85.3000 7 0 338
1866101S07089 1866 8 SI MM NOT_NAMED 1866-04-14 15:00:00 NR -10.6056 85.7057 main 1767 1767 _____P________ -1 -10.6056 85.7057 99 7 1 225
1866101S07089 1866 8 SI MM NOT_NAMED 1866-04-14 18:00:00 NR -10.7474 85.6071 main 1782 1782 _____P________ -1 -10.7474 85.6071 99 7 4 214
1866101S07089 1866 8 SI MM NOT_NAMED 1866-04-14 21:00:00 NR -10.8958 85.5076 main 1804 1804 _____P________ -1 -10.8958 85.5076 99 7 4 213
1866101S07089 1866 8 SI MM NOT_NAMED 1866-04-15 00:00:00 NR -11.0528 85.4068 main 1825 1825 _____P________ -1 -11.0528 85.4068 99 4 211
1866101S07089 1866 8 SI MM NOT_NAMED 1866-04-15 03:00:00 NR -11.2202 85.3044 main 1841 1841 _____P________ -1 -11.2202 85.3044 99 4 210
1866101S07089 1866 8 SI MM NOT_NAMED 1866-04-15 06:00:00 NR -11.4000 85.2000 main 1862 1862 _____O________ -1 -11.4000 85.2000 99 9.90000 4 209
1866101S07089 1866 8 SI MM NOT_NAMED 1866-04-15 09:00:00 NR -11.5936 85.0932 main 1884 1884 _____P________ -1 -11.5936 85.0932 99 5 208
1866101S07089 1866 8 SI MM NOT_NAMED 1866-04-15 12:00:00 NR -11.7998 84.9843 main 1906 1906 _____P________ -1 -11.7998 84.9843 99 5 207
1866101S07089 1866 8 SI MM NOT_NAMED 1866-04-15 15:00:00 NR -12.0167 84.8734 main 1928 1928 _____P________ -1 -12.0167 84.8734 99 5 206
1866101S07089 1866 8 SI MM NOT_NAMED 1866-04-15 18:00:00 NR -12.2427 84.7609 main 1950 1950 _____P________ -1 -12.2427 84.7609 99 5 206
1866101S07089 1866 8 SI MM NOT_NAMED 1866-04-15 21:00:00 NR -12.4758 84.6470 main 1987 1987 _____P________ -1 -12.4758 84.6470 99 5 205
1866101S07089 1866 8 SI MM NOT_NAMED 1866-04-16 00:00:00 NR -12.7142 84.5320 main 2009 2009 _____P________ -1 -12.7142 84.5320 99 5 205
1866101S07089 1866 8 SI MM NOT_NAMED 1866-04-16 03:00:00 NR -12.9563 84.4163 main 2038 2038 _____P________ -1 -12.9563 84.4163 99 5 205
1866101S07089 1866 8 SI MM NOT_NAMED 1866-04-16 06:00:00 NR -13.2000 84.3000 main 2060 _____O________ -1 -13.2000 84.3000 99 9.90000 5 205

About IBTrACS Database

This database is a web-friendly format of International Best Track Archive for Climate Stewardship (IBTrACS), a global best track data archive curated by NOAA dating back to 1842.

Updated: 2021-11-26